createdAt,value
2017-03-11T00:00:37.706Z,88.95
2017-03-11T00:01:37.726Z,88.67
2017-03-11T00:02:37.355Z,88.43
2017-03-11T00:03:37.772Z,89.04
2017-03-11T00:04:37.781Z,88.38
2017-03-11T00:05:37.797Z,88.85
2017-03-11T00:06:37.817Z,88.57
2017-03-11T00:07:37.837Z,88.38
2017-03-11T00:08:37.858Z,88.38
2017-03-11T00:09:37.875Z,87.95
2017-03-11T00:10:37.895Z,88.24
2017-03-11T00:11:52.443Z,88.71
2017-03-11T00:13:37.951Z,88.67
2017-03-11T00:14:37.969Z,88.47
2017-03-11T00:15:37.993Z,88.38
2017-03-11T00:17:38.038Z,88.15
2017-03-11T00:18:38.046Z,88.15
2017-03-11T00:19:38.706Z,87.95
2017-03-11T00:20:38.083Z,88.62
2017-03-11T00:21:38.117Z,88.09
2017-03-11T00:22:38.132Z,88.47
2017-03-11T00:23:38.141Z,88.34
2017-03-11T00:24:38.158Z,88.38
2017-03-11T00:25:38.177Z,88.15
2017-03-11T00:26:38.198Z,88.38
2017-03-11T00:27:52.743Z,88.38
2017-03-11T00:28:38.234Z,88.09
2017-03-11T00:29:38.251Z,88.34
2017-03-11T00:30:38.272Z,88.24
2017-03-11T00:31:38.290Z,88.76
2017-03-11T00:32:38.311Z,88.47
2017-03-11T00:33:38.329Z,88.24
2017-03-11T00:34:38.350Z,88.05
2017-03-11T00:35:38.371Z,87.76
2017-03-11T00:36:38.391Z,88.05
2017-03-11T00:38:38.424Z,88.34
2017-03-11T00:39:38.444Z,88.34
2017-03-11T00:40:38.468Z,88.34
2017-03-11T00:41:38.501Z,88.15
2017-03-11T00:42:38.507Z,88.71
2017-03-11T00:43:53.046Z,88.34
2017-03-11T00:44:38.545Z,88.24
2017-03-11T00:45:38.557Z,88.43
2017-03-11T00:46:38.575Z,88.81
2017-03-11T00:47:38.597Z,89
2017-03-11T00:48:38.614Z,88.81
2017-03-11T00:50:38.650Z,88.81
2017-03-11T00:51:38.669Z,88.9
2017-03-11T00:52:38.687Z,88.81
2017-03-11T00:53:38.708Z,89.28
2017-03-11T00:54:38.727Z,89
2017-03-11T00:55:38.748Z,88.81
2017-03-11T00:56:38.765Z,88.9
2017-03-11T00:57:38.793Z,89.28
2017-03-11T00:58:53.331Z,89.38
2017-03-11T00:59:38.828Z,89.67
2017-03-11T01:00:38.846Z,89.38
2017-03-11T01:01:38.858Z,89
2017-03-11T01:02:38.890Z,88.81
2017-03-11T01:03:38.898Z,89.47
2017-03-11T01:04:38.913Z,89
2017-03-11T01:05:38.932Z,88.9
2017-03-11T01:07:38.969Z,89.38
2017-03-11T01:08:38.990Z,89.28
2017-03-11T01:09:39.014Z,89.38
2017-03-11T01:10:39.028Z,89.38
2017-03-11T01:11:39.046Z,89.09
2017-03-11T01:12:39.067Z,89.76
2017-03-11T01:13:39.084Z,89.95
2017-03-11T01:14:39.116Z,90.05
2017-03-11T01:15:39.119Z,89.57
2017-03-11T01:16:39.150Z,89.57
2017-03-11T01:17:39.162Z,89.86
2017-03-11T01:18:39.177Z,89.28
2017-03-11T01:20:39.215Z,89.86
2017-03-11T01:22:39.265Z,89.81
2017-03-11T01:24:39.316Z,90.19
2017-03-11T01:25:39.309Z,90.38
2017-03-11T01:26:39.340Z,90.57
2017-03-11T01:27:39.346Z,90.76
2017-03-11T01:28:39.364Z,91.04
2017-03-11T01:29:39.392Z,90.47
2017-03-11T01:30:53.929Z,90.95
2017-03-11T01:31:39.053Z,90.76
2017-03-11T01:32:39.453Z,90.85
2017-03-11T01:33:39.479Z,91.04
2017-03-11T01:34:39.482Z,90.76
2017-03-11T01:35:39.496Z,90.76
2017-03-11T01:36:39.515Z,91.04
2017-03-11T01:37:39.530Z,91.04
2017-03-11T01:38:39.554Z,91.8
2017-03-11T01:39:39.584Z,91.52
2017-03-11T01:40:39.605Z,91.24
2017-03-11T01:41:39.616Z,91.61
2017-03-11T01:42:39.625Z,91.33
2017-03-11T01:43:39.648Z,91.14
2017-03-11T01:44:39.671Z,91.52
2017-03-11T01:45:39.303Z,91.61
2017-03-11T01:46:54.228Z,91.52
2017-03-11T01:48:39.738Z,91.89
2017-03-11T01:49:39.765Z,91.42
2017-03-11T01:50:39.788Z,91.61
2017-03-11T01:51:39.797Z,91.61
2017-03-11T01:52:39.812Z,91.99
2017-03-11T01:53:39.828Z,91.71
2017-03-11T01:54:39.850Z,92.28
2017-03-11T01:55:39.868Z,92.28
2017-03-11T01:56:39.884Z,92.28
2017-03-11T01:57:39.906Z,92.28
2017-03-11T01:58:39.928Z,92.66
2017-03-11T01:59:39.942Z,91.99
2017-03-11T02:00:39.989Z,92.28
2017-03-11T02:01:39.983Z,92.37
2017-03-11T02:02:54.524Z,92.37
2017-03-11T02:03:40.021Z,92.66
2017-03-11T02:04:40.041Z,92.85
2017-03-11T02:05:40.051Z,92.66
2017-03-11T02:06:40.084Z,92.47
2017-03-11T02:07:40.092Z,93.04
2017-03-11T02:08:40.114Z,92.9
2017-03-11T02:09:40.152Z,92.8
2017-03-11T02:10:40.158Z,93.27
2017-03-11T02:11:40.164Z,93.89
2017-03-11T02:12:40.183Z,93.7
2017-03-11T02:13:40.209Z,93.51
2017-03-11T02:14:40.226Z,93.56
2017-03-11T02:15:40.238Z,93.46
2017-03-11T02:17:39.901Z,93.37
2017-03-11T02:18:54.820Z,93.46
2017-03-11T02:19:40.312Z,93.65
2017-03-11T02:20:40.329Z,93.56
2017-03-11T02:21:40.350Z,93.46
2017-03-11T02:23:40.386Z,93.75
2017-03-11T02:24:40.401Z,94.03
2017-03-11T02:25:40.437Z,94.13
2017-03-11T02:26:40.438Z,93.56
2017-03-11T02:27:40.458Z,93.46
2017-03-11T02:28:40.474Z,93.37
2017-03-11T02:29:40.108Z,93.37
2017-03-11T02:30:40.539Z,93.84
2017-03-11T02:31:40.534Z,94.18
2017-03-11T02:32:40.564Z,93.37
2017-03-11T02:33:55.097Z,93.46
2017-03-11T02:34:40.597Z,93.37
2017-03-11T02:35:40.602Z,93.46
2017-03-11T02:36:40.626Z,93.46
2017-03-11T02:37:40.649Z,93.75
2017-03-11T02:39:40.701Z,93.6
2017-03-11T02:40:40.696Z,93.84
2017-03-11T02:41:40.715Z,93.51
2017-03-11T02:43:40.759Z,93.41
2017-03-11T02:44:40.770Z,93.8
2017-03-11T02:45:40.812Z,93.32
2017-03-11T02:46:40.806Z,93.51
2017-03-11T02:47:40.827Z,93.04
2017-03-11T02:48:40.842Z,92.99
2017-03-11T02:49:40.869Z,93.51
2017-03-11T02:50:40.890Z,93.65
2017-03-11T02:51:40.908Z,93.75
2017-03-11T02:52:40.913Z,93.37
2017-03-11T02:55:40.972Z,93.65
2017-03-11T02:56:40.991Z,94.03
2017-03-11T02:57:41.010Z,93.46
2017-03-11T02:58:41.026Z,93.84
2017-03-11T02:59:41.046Z,93.41
2017-03-11T03:00:41.077Z,93.46
2017-03-11T03:01:41.082Z,93.84
2017-03-11T03:02:41.097Z,94.03
2017-03-11T03:03:41.119Z,93.84
2017-03-11T03:04:41.135Z,93.46
2017-03-11T03:05:55.681Z,94.13
2017-03-11T03:06:41.171Z,93.94
2017-03-11T03:07:41.190Z,94.23
2017-03-11T03:08:40.822Z,94.13
2017-03-11T03:09:41.232Z,94.32
2017-03-11T03:10:41.260Z,94.6
2017-03-11T03:11:41.264Z,94.6
2017-03-11T03:12:41.284Z,94.79
2017-03-11T03:13:41.299Z,94.89
2017-03-11T03:14:41.318Z,94.98
2017-03-11T03:15:41.352Z,95.17
2017-03-11T03:16:40.981Z,95.07
2017-03-11T03:17:41.373Z,95.17
2017-03-11T03:18:41.393Z,95.46
2017-03-11T03:19:41.407Z,95.17
2017-03-11T03:20:41.427Z,95.36
2017-03-11T03:21:55.977Z,95.07
2017-03-11T03:22:41.472Z,95.17
2017-03-11T03:23:41.501Z,95.55
2017-03-11T03:24:41.508Z,95.36
2017-03-11T03:25:41.529Z,95.55
2017-03-11T03:26:41.535Z,95.74
2017-03-11T03:27:41.556Z,95.55
2017-03-11T03:28:41.572Z,95.65
2017-03-11T03:29:41.590Z,95.55
2017-03-11T03:30:41.608Z,95.84
2017-03-11T03:31:41.626Z,95.27
2017-03-11T03:32:41.645Z,95.65
2017-03-11T03:33:41.669Z,95.74
2017-03-11T03:34:41.679Z,95.65
2017-03-11T03:35:42.568Z,95.55
2017-03-11T03:36:41.734Z,95.55
2017-03-11T03:37:56.261Z,95.93
2017-03-11T03:38:41.752Z,96.31
2017-03-11T03:39:41.771Z,96.41
2017-03-11T03:40:41.791Z,96.41
2017-03-11T03:41:41.812Z,96.22
2017-03-11T03:42:41.854Z,96.22
2017-03-11T03:43:41.851Z,96.12
2017-03-11T03:44:41.862Z,96.03
2017-03-11T03:45:41.880Z,95.93
2017-03-11T03:46:41.902Z,95.93
2017-03-11T03:47:41.914Z,96.03
2017-03-11T03:48:41.945Z,96.22
2017-03-11T03:49:41.959Z,96.03
2017-03-11T03:50:41.971Z,96.31
2017-03-11T03:51:41.987Z,96.31
2017-03-11T03:52:42.005Z,95.93
2017-03-11T03:53:56.551Z,96.22
2017-03-11T03:54:42.082Z,96.41
2017-03-11T03:55:42.069Z,96.5
2017-03-11T03:56:41.693Z,97.17
2017-03-11T03:58:42.116Z,96.78
2017-03-11T03:59:42.144Z,97.07
2017-03-11T04:00:42.150Z,96.78
2017-03-11T04:01:42.196Z,97.26
2017-03-11T04:02:42.186Z,96.88
2017-03-11T04:03:42.204Z,97.26
2017-03-11T04:04:42.227Z,97.17
2017-03-11T04:05:42.242Z,97.55
2017-03-11T04:06:42.259Z,97.45
2017-03-11T04:07:42.276Z,97.55
2017-03-11T04:08:56.823Z,97.36
2017-03-11T04:09:42.312Z,97.26
2017-03-11T04:10:42.335Z,97.45
2017-03-11T04:11:41.977Z,97.12
2017-03-11T04:12:42.368Z,97.88
2017-03-11T04:13:42.390Z,97.97
2017-03-11T04:14:42.406Z,97.59
2017-03-11T04:15:42.434Z,98.07
2017-03-11T04:16:42.438Z,98.25
2017-03-11T04:17:42.463Z,98.54
2017-03-11T04:18:42.475Z,98.73
2017-03-11T04:20:42.511Z,98.25
2017-03-11T04:21:42.538Z,98.63
2017-03-11T04:22:42.558Z,98.73
2017-03-11T04:23:42.563Z,98.63
2017-03-11T04:24:42.590Z,99.11
2017-03-11T04:25:42.613Z,98.73
2017-03-11T04:26:42.618Z,98.44
2017-03-11T04:27:42.635Z,98.73
2017-03-11T04:28:42.661Z,99.11
2017-03-11T04:29:42.672Z,98.44
2017-03-11T04:30:42.691Z,98.44
2017-03-11T04:31:42.710Z,99.01
2017-03-11T04:32:42.726Z,99.11
2017-03-11T04:33:42.906Z,99.3
2017-03-11T04:34:42.763Z,99.39
2017-03-11T04:35:42.788Z,99.87
2017-03-11T04:36:42.799Z,99.87
2017-03-11T04:37:42.813Z,99.77
2017-03-11T04:38:42.841Z,99.39
2017-03-11T04:39:42.849Z,99.77
2017-03-11T04:40:57.394Z,99.99
2017-03-11T04:41:42.885Z,99.99
2017-03-11T04:42:42.904Z,99.87
2017-03-11T04:43:42.919Z,99.99
2017-03-11T04:44:42.936Z,99.39
2017-03-11T04:45:42.953Z,99.49
2017-03-11T04:47:42.989Z,99.87
2017-03-11T04:48:43.015Z,99.3
2017-03-11T04:49:43.025Z,99.49
2017-03-11T04:50:43.055Z,99.49
2017-03-11T04:51:43.062Z,99.3
2017-03-11T04:52:43.079Z,99.49
2017-03-11T04:53:43.096Z,99.3
2017-03-11T04:54:43.114Z,99.99
2017-03-11T04:55:43.132Z,99.58
2017-03-11T04:56:57.677Z,99.68
2017-03-11T04:57:43.175Z,99.49
2017-03-11T04:58:43.186Z,99.68
2017-03-11T04:59:43.213Z,99.87
2017-03-11T05:00:43.219Z,99.68
2017-03-11T05:01:43.238Z,99.58
2017-03-11T05:02:43.267Z,99.68
2017-03-11T05:03:43.271Z,99.87
2017-03-11T05:05:43.308Z,99.87
2017-03-11T05:06:43.325Z,99.99
2017-03-11T05:07:43.344Z,99.87
2017-03-11T05:08:43.360Z,99.87
2017-03-11T05:09:43.378Z,99.77
2017-03-11T05:10:43.396Z,99.87
2017-03-11T05:11:43.414Z,99.99
2017-03-11T05:12:57.958Z,99.99
2017-03-11T05:13:43.448Z,99.87
2017-03-11T05:14:43.473Z,99.87
2017-03-11T05:15:43.488Z,99.99
2017-03-11T05:16:43.116Z,99.77
2017-03-11T05:17:43.523Z,99.96
2017-03-11T05:18:43.737Z,99.87
2017-03-11T05:19:43.555Z,99.99
2017-03-11T05:20:43.573Z,99.99
2017-03-11T05:21:43.589Z,99.99
2017-03-11T05:22:43.607Z,99.99
2017-03-11T05:23:43.626Z,99.99
2017-03-11T05:24:43.647Z,99.99
2017-03-11T05:26:43.677Z,99.99
2017-03-11T05:27:43.693Z,99.99
2017-03-11T05:28:58.239Z,99.99
2017-03-11T05:29:43.729Z,99.99
2017-03-11T05:30:43.746Z,99.99
2017-03-11T05:31:43.763Z,99.96
2017-03-11T05:32:43.792Z,99.87
2017-03-11T05:33:43.801Z,99.87
2017-03-11T05:34:43.833Z,99.87
2017-03-11T05:35:43.845Z,99.99
2017-03-11T05:36:43.858Z,99.99
2017-03-11T05:37:43.871Z,99.99
2017-03-11T05:38:43.886Z,99.87
2017-03-11T05:39:43.905Z,99.99
2017-03-11T05:40:43.920Z,99.99
2017-03-11T05:41:43.939Z,99.96
2017-03-11T05:42:43.958Z,99.99
2017-03-11T05:43:58.503Z,99.96
2017-03-11T05:44:43.991Z,99.99
2017-03-11T05:45:44.009Z,99.96
2017-03-11T05:46:44.031Z,99.87
2017-03-11T05:47:44.049Z,99.77
2017-03-11T05:48:44.070Z,99.87
2017-03-11T05:49:44.099Z,99.77
2017-03-11T05:50:44.105Z,99.99
2017-03-11T05:51:44.142Z,99.68
2017-03-11T05:52:44.146Z,99.39
2017-03-11T05:53:44.159Z,99.68
2017-03-11T05:54:44.177Z,99.87
2017-03-11T05:55:44.186Z,99.68
2017-03-11T05:56:44.204Z,99.58
2017-03-11T05:57:44.222Z,99.49
2017-03-11T05:58:44.243Z,99.49
2017-03-11T05:59:44.257Z,99.68
2017-03-11T06:00:44.286Z,99.58
2017-03-11T06:01:44.305Z,99.77
2017-03-11T06:02:44.314Z,99.68
2017-03-11T06:04:44.346Z,99.39
2017-03-11T06:05:44.368Z,99.3
2017-03-11T06:06:44.392Z,99.77
2017-03-11T06:07:44.416Z,99.77
2017-03-11T06:08:44.413Z,99.2
2017-03-11T06:09:44.434Z,99.2
2017-03-11T06:10:44.454Z,98.92
2017-03-11T06:11:44.468Z,98.92
2017-03-11T06:12:44.489Z,99.49
2017-03-11T06:13:44.505Z,99.77
2017-03-11T06:14:44.522Z,99.77
2017-03-11T06:15:59.066Z,99.01
2017-03-11T06:16:44.559Z,99.06
2017-03-11T06:17:44.586Z,98.78
2017-03-11T06:18:44.592Z,98.78
2017-03-11T06:19:44.612Z,98.97
2017-03-11T06:20:44.652Z,98.97
2017-03-11T06:21:44.657Z,98.68
2017-03-11T06:22:44.689Z,98.4
2017-03-11T06:23:44.693Z,98.97
2017-03-11T06:24:44.708Z,98.87
2017-03-11T06:25:44.744Z,98.68
2017-03-11T06:26:44.750Z,98.59
2017-03-11T06:27:44.762Z,98.59
2017-03-11T06:28:44.386Z,98.59
2017-03-11T06:29:44.786Z,98.3
2017-03-11T06:30:44.817Z,97.83
2017-03-11T06:31:59.351Z,98.21
2017-03-11T06:32:44.841Z,98.59
2017-03-11T06:33:44.890Z,98.11
2017-03-11T06:35:44.894Z,97.92
2017-03-11T06:36:44.939Z,98.3
2017-03-11T06:37:44.931Z,98.3
2017-03-11T06:38:44.960Z,98.21
2017-03-11T06:39:44.966Z,97.92
2017-03-11T06:40:44.983Z,98.3
2017-03-11T06:41:45.030Z,97.92
2017-03-11T06:42:45.046Z,98.4
2017-03-11T06:43:45.035Z,98.59
2017-03-11T06:44:45.058Z,98.3
2017-03-11T06:45:45.073Z,98.4
2017-03-11T06:46:45.104Z,98.02
2017-03-11T06:47:59.636Z,98.49
2017-03-11T06:48:45.127Z,98.35
2017-03-11T06:49:45.145Z,98.44
2017-03-11T06:50:45.163Z,98.59
2017-03-11T06:51:45.185Z,98.49
2017-03-11T06:52:45.201Z,98.3
2017-03-11T06:53:45.216Z,98.21
2017-03-11T06:54:45.235Z,97.55
2017-03-11T06:55:45.263Z,98.11
2017-03-11T06:56:45.269Z,97.74
2017-03-11T06:57:45.289Z,97.92
2017-03-11T06:58:45.305Z,97.26
2017-03-11T06:59:45.324Z,97.26
2017-03-11T07:00:45.355Z,97.17
2017-03-11T07:01:45.359Z,96.31
2017-03-11T07:02:45.377Z,96.78
2017-03-11T07:03:59.922Z,96.5
2017-03-11T07:04:45.415Z,96.88
2017-03-11T07:05:45.433Z,96.5
2017-03-11T07:06:45.461Z,96.88
2017-03-11T07:07:45.483Z,96.97
2017-03-11T07:08:45.488Z,96.88
2017-03-11T07:09:45.504Z,96.88
2017-03-11T07:10:45.530Z,96.97
2017-03-11T07:11:45.544Z,96.59
2017-03-11T07:12:45.558Z,96.31
2017-03-11T07:13:45.583Z,96.03
2017-03-11T07:14:45.594Z,96.22
2017-03-11T07:15:45.618Z,96.17
2017-03-11T07:16:45.632Z,95.65
2017-03-11T07:17:45.659Z,95.93
2017-03-11T07:19:00.196Z,96.41
2017-03-11T07:19:45.685Z,96.31
2017-03-11T07:20:45.703Z,95.65
2017-03-11T07:21:45.723Z,95.84
2017-03-11T07:23:45.771Z,95.65
2017-03-11T07:25:45.794Z,95.6
2017-03-11T07:26:45.813Z,95.41
2017-03-11T07:27:45.835Z,94.93
2017-03-11T07:28:45.865Z,95.12
2017-03-11T07:29:45.883Z,94.74
2017-03-11T07:30:45.888Z,94.56
2017-03-11T07:31:45.906Z,94.37
2017-03-11T07:32:45.927Z,93.8
2017-03-11T07:33:45.957Z,93.32
2017-03-11T07:35:45.988Z,93.51
2017-03-11T07:36:46.008Z,93.6
2017-03-11T07:37:46.016Z,93.51
2017-03-11T07:38:46.052Z,93.41
2017-03-11T07:39:46.057Z,93.04
2017-03-11T07:40:46.081Z,93.7
2017-03-11T07:41:46.090Z,93.46
2017-03-11T07:42:46.110Z,93.37
2017-03-11T07:43:46.134Z,92.51
2017-03-11T07:44:46.149Z,92.42
2017-03-11T07:45:46.165Z,91.94
2017-03-11T07:46:46.189Z,92.08
2017-03-11T07:47:46.209Z,91.56
2017-03-11T07:48:46.232Z,90.52
2017-03-11T07:49:46.244Z,91.09
2017-03-11T07:51:00.789Z,91.19
2017-03-11T07:51:46.282Z,91.38
2017-03-11T07:52:46.298Z,91.75
2017-03-11T07:53:46.331Z,91.66
2017-03-11T07:54:46.336Z,91.52
2017-03-11T07:55:46.358Z,91.52
2017-03-11T07:56:46.383Z,90.56
2017-03-11T07:57:46.393Z,90.33
2017-03-11T07:58:46.425Z,90.47
2017-03-11T07:59:46.434Z,91.13
2017-03-11T08:00:46.452Z,91.23
2017-03-11T08:02:46.495Z,90.19
2017-03-11T08:03:46.508Z,89.52
2017-03-11T08:04:46.530Z,89.8
2017-03-11T08:05:46.549Z,89.8
2017-03-11T08:07:01.097Z,89.33
2017-03-11T08:07:46.601Z,89.52
2017-03-11T08:08:46.606Z,89.61
2017-03-11T08:09:46.628Z,90
2017-03-11T08:10:46.653Z,90.37
2017-03-11T08:11:46.665Z,90.28
2017-03-11T08:12:46.684Z,89.8
2017-03-11T08:13:46.706Z,89.61
2017-03-11T08:14:46.739Z,88.95
2017-03-11T08:15:46.743Z,89.33
2017-03-11T08:16:46.764Z,88.95
2017-03-11T08:17:46.783Z,89.47
2017-03-11T08:18:47.065Z,88.42
2017-03-11T08:19:46.823Z,88.33
2017-03-11T08:20:46.858Z,88.04
2017-03-11T08:21:46.870Z,88.23
2017-03-11T08:23:01.410Z,88.04
2017-03-11T08:23:46.904Z,88.42
2017-03-11T08:24:46.922Z,88.23
2017-03-11T08:25:46.942Z,88.61
2017-03-11T08:26:46.997Z,88.52
2017-03-11T08:28:47.002Z,86.43
2017-03-11T08:29:47.031Z,87.19
2017-03-11T08:30:47.042Z,87.57
2017-03-11T08:31:47.083Z,87.76
2017-03-11T08:32:47.093Z,87.28
2017-03-11T08:33:47.102Z,88.13
2017-03-11T08:34:47.147Z,88.09
2017-03-11T08:35:47.156Z,88.57
2017-03-11T08:36:47.166Z,89.23
2017-03-11T08:37:47.197Z,89.14
2017-03-11T08:39:01.732Z,88.33
2017-03-11T08:39:47.240Z,88.23
2017-03-11T08:40:47.259Z,87.85
2017-03-11T08:43:47.305Z,85.52
2017-03-11T08:44:47.331Z,84.19
2017-03-11T08:45:46.974Z,84.33
2017-03-11T08:46:46.978Z,84.99
2017-03-11T08:47:47.387Z,84.33
2017-03-11T08:48:47.406Z,83.65
2017-03-11T08:49:47.443Z,83.37
2017-03-11T08:50:47.455Z,83.81
2017-03-11T08:51:47.470Z,84.28
2017-03-11T08:52:47.500Z,84.76
2017-03-11T08:54:02.040Z,84.95
2017-03-11T08:54:47.532Z,85.61
2017-03-11T08:55:47.556Z,84.85
2017-03-11T08:56:47.573Z,84.95
2017-03-11T08:57:47.594Z,84.95
2017-03-11T08:58:47.625Z,83.85
2017-03-11T08:59:47.640Z,83.71
2017-03-11T09:01:47.692Z,83.65
2017-03-11T09:02:47.711Z,83.51
2017-03-11T09:03:47.720Z,81.79
2017-03-11T09:04:47.743Z,81.51
2017-03-11T09:05:47.767Z,81.51
2017-03-11T09:06:47.807Z,81.41
2017-03-11T09:07:47.814Z,80.65
2017-03-11T09:08:47.825Z,80.65
2017-03-11T09:09:47.860Z,80.08
2017-03-11T09:10:47.867Z,80.84
2017-03-11T09:11:47.889Z,80.75
2017-03-11T09:12:47.913Z,81.13
2017-03-11T09:13:47.931Z,80.5
2017-03-11T09:15:47.977Z,79.7
2017-03-11T09:16:47.995Z,80.36
2017-03-11T09:17:48.017Z,80.18
2017-03-11T09:18:48.040Z,80.27
2017-03-11T09:19:48.065Z,80.65
2017-03-11T09:20:48.084Z,81.51
2017-03-11T09:21:48.117Z,80.94
2017-03-11T09:22:48.125Z,80.27
2017-03-11T09:23:48.146Z,80.84
2017-03-11T09:24:48.176Z,80.75
2017-03-11T09:26:02.718Z,81.23
2017-03-11T09:26:48.210Z,81.13
2017-03-11T09:27:48.233Z,81.28
2017-03-11T09:28:48.264Z,81.66
2017-03-11T09:29:48.276Z,81.85
2017-03-11T09:30:48.308Z,82.42
2017-03-11T09:31:48.325Z,82.61
2017-03-11T09:32:48.340Z,82.7
2017-03-11T09:33:48.369Z,82.7
2017-03-11T09:34:48.385Z,82.51
2017-03-11T09:35:48.403Z,83.37
2017-03-11T09:36:48.423Z,83.28
2017-03-11T09:37:48.447Z,82.99
2017-03-11T09:38:48.481Z,81.95
2017-03-11T09:39:48.492Z,82.61
2017-03-11T09:40:48.510Z,82.32
2017-03-11T09:42:03.060Z,82.04
2017-03-11T09:42:48.551Z,82.04
2017-03-11T09:43:48.573Z,81.95
2017-03-11T09:44:48.593Z,81.76
2017-03-11T09:45:48.619Z,82.51
2017-03-11T09:46:48.635Z,82.14
2017-03-11T09:47:48.657Z,81.85
2017-03-11T09:48:48.686Z,82.67
2017-03-11T09:49:48.698Z,82.9
2017-03-11T09:50:48.333Z,82.32
2017-03-11T09:51:48.747Z,82.51
2017-03-11T09:52:48.762Z,82.67
2017-03-11T09:53:48.783Z,82.42
2017-03-11T09:54:48.806Z,82.61
2017-03-11T09:55:48.835Z,82.7
2017-03-11T09:56:48.847Z,82.04
2017-03-11T09:58:03.396Z,82.04
2017-03-11T09:59:48.911Z,81.09
2017-03-11T10:01:48.952Z,81.23
2017-03-11T10:03:48.995Z,80.55
2017-03-11T10:04:49.016Z,80.94
2017-03-11T10:05:49.037Z,80.84
2017-03-11T10:06:49.069Z,80.31
2017-03-11T10:07:49.080Z,80.41
2017-03-11T10:08:49.099Z,80.41
2017-03-11T10:09:49.135Z,79.55
2017-03-11T10:10:49.152Z,78.31
2017-03-11T10:11:49.164Z,77.93
2017-03-11T10:14:03.735Z,78.85
2017-03-11T10:14:49.246Z,78.08
2017-03-11T10:16:49.270Z,78.27
2017-03-11T10:19:49.343Z,79.03
2017-03-11T10:20:49.356Z,79.32
2017-03-11T10:21:49.378Z,78.94
2017-03-11T10:22:49.399Z,78.27
2017-03-11T10:23:49.420Z,78.75
2017-03-11T10:24:49.443Z,79.6
2017-03-11T10:25:49.464Z,79.6
2017-03-11T10:26:49.489Z,78.65
2017-03-11T10:27:49.564Z,79.13
2017-03-11T10:29:04.058Z,79.41
2017-03-11T10:29:49.183Z,79.46
2017-03-11T10:30:49.582Z,77.64
2017-03-11T10:31:49.602Z,77.45
2017-03-11T10:32:49.617Z,77.55
2017-03-11T10:33:49.650Z,77.07
2017-03-11T10:34:49.657Z,77.89
2017-03-11T10:35:49.690Z,79.03
2017-03-11T10:36:49.701Z,79.51
2017-03-11T10:37:49.739Z,79.51
2017-03-11T10:38:49.751Z,79.03
2017-03-11T10:39:49.766Z,78.56
2017-03-11T10:40:49.403Z,78.94
2017-03-11T10:41:49.808Z,78.08
2017-03-11T10:42:49.454Z,77.89
2017-03-11T10:43:49.876Z,78.27
2017-03-11T10:44:49.876Z,78.22
2017-03-11T10:45:49.907Z,77.17
2017-03-11T10:46:49.921Z,76.79
2017-03-11T10:47:49.553Z,76.5
2017-03-11T10:49:49.985Z,76.03
2017-03-11T10:50:50.016Z,75.84
2017-03-11T10:51:50.027Z,76.31
2017-03-11T10:52:50.049Z,77.07
2017-03-11T10:53:50.071Z,77.17
2017-03-11T10:54:50.097Z,76.69
2017-03-11T10:55:50.115Z,76.59
2017-03-11T10:56:49.754Z,77.22
2017-03-11T10:57:50.158Z,77.8
2017-03-11T10:59:50.201Z,77.13
2017-03-11T11:01:04.752Z,77.42
2017-03-11T11:01:50.244Z,77.98
2017-03-11T11:02:50.272Z,77.98
2017-03-11T11:03:50.287Z,77.89
2017-03-11T11:05:50.342Z,76.12
2017-03-11T11:06:50.355Z,77.3
2017-03-11T11:07:50.377Z,77.4
2017-03-11T11:08:50.400Z,75.43
2017-03-11T11:09:50.422Z,75.24
2017-03-11T11:10:50.445Z,76.1
2017-03-11T11:11:50.465Z,75.05
2017-03-11T11:12:50.498Z,74.1
2017-03-11T11:14:50.542Z,75.4
2017-03-11T11:15:50.569Z,75.64
2017-03-11T11:17:05.104Z,76.21
2017-03-11T11:17:50.597Z,76.21
2017-03-11T11:18:50.618Z,76.79
2017-03-11T11:19:50.255Z,77.13
2017-03-11T11:20:50.671Z,77.42
2017-03-11T11:21:50.697Z,77.98
2017-03-11T11:22:50.709Z,78.37
2017-03-11T11:23:50.730Z,79.09
2017-03-11T11:24:50.752Z,79.22
2017-03-11T11:25:50.773Z,78.37
2017-03-11T11:26:50.793Z,79.03
2017-03-11T11:27:50.832Z,78.27
2017-03-11T11:28:50.856Z,78.46
2017-03-11T11:29:50.864Z,78.03
2017-03-11T11:30:50.893Z,78.03
2017-03-11T11:31:50.906Z,77.83
2017-03-11T11:33:05.455Z,76.98
2017-03-11T11:33:50.949Z,76.4
2017-03-11T11:34:50.980Z,76.59
2017-03-11T11:35:50.995Z,77.11
2017-03-11T11:37:51.038Z,77.11
2017-03-11T11:39:51.079Z,75.15
2017-03-11T11:40:51.103Z,74.63
2017-03-11T11:41:50.749Z,74.92
2017-03-11T11:42:51.146Z,75.3
2017-03-11T11:43:51.174Z,76.06
2017-03-11T11:44:51.195Z,75.93
2017-03-11T11:45:51.212Z,76.4
2017-03-11T11:46:51.238Z,77.36
2017-03-11T11:47:51.267Z,77.51
2017-03-11T11:49:05.807Z,77.45
2017-03-11T11:49:50.913Z,77.64
2017-03-11T11:51:50.957Z,77.83
2017-03-11T11:52:51.375Z,77.93
2017-03-11T11:54:51.423Z,77.17
2017-03-11T11:55:51.049Z,76.4
2017-03-11T11:56:51.454Z,76.69
2017-03-11T11:57:51.503Z,77.83
2017-03-11T11:58:51.495Z,77.64
2017-03-11T11:59:51.521Z,77.45
2017-03-11T12:00:51.155Z,77.64
2017-03-11T12:01:51.563Z,77.93
2017-03-11T12:02:51.205Z,78.5
2017-03-11T12:04:06.137Z,78.12
2017-03-11T12:04:51.634Z,77.93
2017-03-11T12:05:51.652Z,77.74
2017-03-11T12:06:51.295Z,77.74
2017-03-11T12:07:51.695Z,77.36
2017-03-11T12:08:51.719Z,77.07
2017-03-11T12:09:51.740Z,76.98
2017-03-11T12:10:51.764Z,76.88
2017-03-11T12:11:51.790Z,76.88
2017-03-11T12:12:51.819Z,77.07
2017-03-11T12:13:51.826Z,76.5
2017-03-11T12:14:51.862Z,76.79
2017-03-11T12:15:51.872Z,77.64
2017-03-11T12:16:51.895Z,77.45
2017-03-11T12:18:51.940Z,77.36
2017-03-11T12:19:51.962Z,77.55
2017-03-11T12:20:51.990Z,77.36
2017-03-11T12:22:52.025Z,77.36
2017-03-11T12:23:52.046Z,77.45
2017-03-11T12:24:52.083Z,77.93
2017-03-11T12:25:52.090Z,78.31
2017-03-11T12:26:52.113Z,78.88
2017-03-11T12:27:52.154Z,77.55
2017-03-11T12:28:51.782Z,78.12
2017-03-11T12:29:51.791Z,77.45
2017-03-11T12:31:52.221Z,77.36
2017-03-11T12:32:52.244Z,77.55
2017-03-11T12:33:52.270Z,77.45
2017-03-11T12:34:52.289Z,76.12
2017-03-11T12:36:06.837Z,76.84
2017-03-11T12:36:52.328Z,77.42
2017-03-11T12:37:52.352Z,77.61
2017-03-11T12:38:52.377Z,77.7
2017-03-11T12:39:52.395Z,78.37
2017-03-11T12:40:52.450Z,78.08
2017-03-11T12:41:52.441Z,79.13
2017-03-11T12:42:52.464Z,79.38
2017-03-11T12:43:52.493Z,79.66
2017-03-11T12:44:52.521Z,80.42
2017-03-11T12:45:52.543Z,81.09
2017-03-11T12:46:52.547Z,80.86
2017-03-11T12:47:52.576Z,81.05
2017-03-11T12:48:52.602Z,80.9
2017-03-11T12:49:52.610Z,80.42
2017-03-11T12:50:52.670Z,80.42
2017-03-11T12:52:07.184Z,80.71
2017-03-11T12:52:52.679Z,80.8
2017-03-11T12:54:52.727Z,79.75
2017-03-11T12:55:52.741Z,79.66
2017-03-11T12:57:52.784Z,79.99
2017-03-11T12:58:52.805Z,78.27
2017-03-11T12:59:52.829Z,78.17
2017-03-11T13:00:52.851Z,77.74
2017-03-11T13:02:52.892Z,76.03
2017-03-11T13:03:52.915Z,75.07
2017-03-11T13:04:52.937Z,74.92
2017-03-11T13:05:52.960Z,74.73
2017-03-11T13:06:52.981Z,74.06
2017-03-11T13:08:07.530Z,74.16
2017-03-11T13:08:53.023Z,73.91
2017-03-11T13:12:53.124Z,72.67
2017-03-11T13:13:53.135Z,72
2017-03-11T13:14:53.157Z,71.48
2017-03-11T13:15:53.177Z,72.09
2017-03-11T13:16:53.200Z,71.3
2017-03-11T13:17:53.222Z,71.48
2017-03-11T13:18:53.252Z,72.34
2017-03-11T13:19:53.583Z,72.63
2017-03-11T13:20:53.287Z,71.96
2017-03-11T13:21:53.310Z,72.25
2017-03-11T13:22:53.331Z,72.16
2017-03-11T13:24:07.883Z,73.21
2017-03-11T13:24:53.525Z,73.21
2017-03-11T13:25:53.410Z,72.53
2017-03-11T13:27:53.444Z,72.82
2017-03-11T13:30:53.509Z,73.45
2017-03-11T13:31:53.529Z,73.83
2017-03-11T13:32:53.552Z,73.74
2017-03-11T13:34:53.596Z,74.21
2017-03-11T13:35:53.616Z,73.83
2017-03-11T13:36:53.639Z,73.74
2017-03-11T13:37:53.673Z,73.55
2017-03-11T13:39:08.213Z,73.26
2017-03-11T13:39:53.747Z,73.17
2017-03-11T13:40:53.741Z,73.36
2017-03-11T13:41:53.751Z,73.74
2017-03-11T13:43:53.792Z,73.93
2017-03-11T13:44:53.812Z,74.12
2017-03-11T13:45:53.466Z,74.65
2017-03-11T13:46:53.472Z,73.51
2017-03-11T13:47:53.879Z,74.18
2017-03-11T13:48:53.901Z,73.89
2017-03-11T13:49:53.924Z,73.89
2017-03-11T13:50:53.945Z,73.32
2017-03-11T13:51:53.966Z,73.51
2017-03-11T13:52:53.989Z,73.22
2017-03-11T13:53:54.013Z,72.31
2017-03-11T13:54:54.033Z,72.02
2017-03-11T13:55:54.053Z,71.83